Time;durP1;ratioP1;P1;durP2;ratioP2;P2;SDS_P1;SDS_P2;PMS_P1;PMS_P2;Temp;Humidity;BMP_temperature;BMP_pressure;BME280_temperature;BME280_humidity;BME280_pressure;Samples;Min_cycle;Max_cycle;Signal;HPM_P1;HPM_P2
2023/07/08 00:03:46;;;;;;;5.45;4.38;;;;;;;24.55;36.16;100222.78;10368539;28;20055;-62
2023/07/08 00:08:47;;;;;;;5.50;4.35;;;;;;;24.51;35.89;100224.28;10370355;28;20046;-62
2023/07/08 00:13:49;;;;;;;5.70;4.32;;;;;;;24.46;36.06;100218.66;10369843;28;20049;-63
2023/07/08 00:18:50;;;;;;;5.30;4.53;;;;;;;24.31;36.28;100199.88;10367825;28;20057;-63
2023/07/08 00:23:51;;;;;;;5.50;4.63;;;;;;;24.30;36.18;100204.47;10364062;28;20041;-62
2023/07/08 00:28:53;;;;;;;5.00;4.20;;;;;;;24.31;36.30;100208.03;10365387;28;20053;-60
2023/07/08 00:33:56;;;;;;;5.03;4.23;;;;;;;24.26;36.24;100207.84;10364549;28;20069;-62
2023/07/08 00:38:58;;;;;;;4.88;4.38;;;;;;;24.21;36.13;100208.47;10366837;28;20054;-62
2023/07/08 00:44:01;;;;;;;4.93;4.32;;;;;;;24.09;36.20;100191.16;10370861;28;20056;-62
2023/07/08 00:49:29;;;;;;;5.07;4.37;;;;;;;24.11;36.30;100203.50;10371409;28;20046;-62
2023/07/08 00:54:31;;;;;;;5.40;3.78;;;;;;;23.99;36.17;100197.91;10359318;28;20041;-61
2023/07/08 00:59:37;;;;;;;5.20;4.57;;;;;;;24.02;36.53;100212.94;10370309;28;20096;-64
2023/07/08 01:04:55;;;;;;;5.60;4.20;;;;;;;23.95;36.41;100217.56;10364414;28;20099;-64
2023/07/08 01:10:03;;;;;;;5.82;4.78;;;;;;;23.94;36.56;100219.44;10362548;28;20049;-64
2023/07/08 01:15:06;;;;;;;4.35;3.92;;;;;;;23.91;36.95;100225.28;10368568;28;20112;-64
2023/07/08 01:20:13;;;;;;;5.43;4.40;;;;;;;23.77;36.52;100210.03;10367164;28;20123;-64
2023/07/08 01:25:14;;;;;;;5.95;4.50;;;;;;;23.78;36.87;100228.00;10369197;28;20045;-63
2023/07/08 01:30:16;;;;;;;6.30;4.10;;;;;;;23.76;36.64;100221.94;10362664;28;20452;-62
2023/07/08 01:35:17;;;;;;;6.63;4.50;;;;;;;23.76;36.47;100235.53;10364344;28;20637;-65
2023/07/08 01:40:19;;;;;;;5.40;4.43;;;;;;;23.71;36.90;100219.88;10356041;28;20053;-61
2023/07/08 01:45:22;;;;;;;4.90;4.15;;;;;;;23.68;37.09;100205.88;10361725;28;20049;-62
2023/07/08 01:50:25;;;;;;;4.85;4.43;;;;;;;23.59;37.15;100208.78;10359650;28;20655;-64
2023/07/08 01:55:30;;;;;;;4.95;4.45;;;;;;;23.61;37.25;100211.31;10362997;28;20046;-62
2023/07/08 02:00:32;;;;;;;6.20;4.53;;;;;;;23.50;37.61;100198.38;10367431;28;20041;-64
2023/07/08 02:05:33;;;;;;;5.50;4.75;;;;;;;23.41;37.26;100189.59;10363628;28;20045;-63
2023/07/08 02:10:38;;;;;;;6.25;4.35;;;;;;;23.43;37.98;100207.31;10366539;28;20057;-63
2023/07/08 02:15:39;;;;;;;5.18;4.45;;;;;;;23.40;37.74;100204.22;10368844;28;20583;-63
2023/07/08 02:20:42;;;;;;;5.75;5.15;;;;;;;23.34;38.14;100191.47;10368708;28;20046;-63
2023/07/08 02:25:55;;;;;;;6.20;5.20;;;;;;;23.33;38.06;100192.50;10364405;28;20654;-63
2023/07/08 02:31:01;;;;;;;5.80;4.57;;;;;;;23.19;37.92;100175.38;10362037;28;20045;-62
2023/07/08 02:36:03;;;;;;;5.22;4.72;;;;;;;23.17;38.23;100186.44;10360732;28;20112;-62
2023/07/08 02:41:04;;;;;;;5.88;5.07;;;;;;;23.10;38.30;100194.59;10354168;28;20053;-61
2023/07/08 02:46:06;;;;;;;5.78;4.35;;;;;;;23.07;38.17;100186.81;10353107;28;20070;-62
2023/07/08 02:51:08;;;;;;;5.18;4.03;;;;;;;23.06;38.04;100197.88;10357397;28;20048;-62
2023/07/08 02:56:10;;;;;;;4.68;4.20;;;;;;;22.95;38.13;100185.75;10353665;28;20045;-61
2023/07/08 03:01:11;;;;;;;5.95;5.00;;;;;;;22.92;38.27;100197.88;10355568;28;20570;-64
2023/07/08 03:06:13;;;;;;;5.50;4.28;;;;;;;22.94;38.39;100205.81;10359478;28;20425;-62
2023/07/08 03:11:14;;;;;;;5.55;5.05;;;;;;;22.83;38.62;100204.53;10371396;28;20807;-63
2023/07/08 03:16:16;;;;;;;9.15;4.82;;;;;;;22.85;38.78;100218.75;10357381;28;20575;-62
2023/07/08 03:21:18;;;;;;;6.05;4.30;;;;;;;22.81;39.01;100225.63;10358447;28;20545;-62
2023/07/08 03:26:23;;;;;;;5.30;4.40;;;;;;;22.77;39.15;100227.06;10350932;28;20049;-64
2023/07/08 03:31:24;;;;;;;5.25;4.75;;;;;;;22.63;39.82;100219.94;10360138;28;20611;-62
2023/07/08 03:36:26;;;;;;;4.82;4.32;;;;;;;22.68;39.42;100231.81;10356513;28;20067;-61
2023/07/08 03:41:27;;;;;;;7.55;4.60;;;;;;;22.58;39.51;100232.22;10360777;28;20179;-61
2023/07/08 03:46:29;;;;;;;5.38;4.60;;;;;;;22.67;39.83;100248.31;10356974;28;20115;-61
2023/07/08 03:51:34;;;;;;;4.32;3.88;;;;;;;22.64;39.82;100246.84;10359038;28;20065;-62
2023/07/08 03:56:35;;;;;;;5.28;4.22;;;;;;;22.60;39.91;100242.88;10358129;28;20045;-62
2023/07/08 04:01:40;;;;;;;5.70;4.20;;;;;;;22.59;40.03;100247.47;10356582;28;20093;-61
2023/07/08 04:06:43;;;;;;;6.00;4.25;;;;;;;22.60;40.10;100243.69;10360157;28;20597;-61
2023/07/08 04:11:44;;;;;;;4.50;3.83;;;;;;;22.59;40.51;100231.19;10363694;28;20120;-62
2023/07/08 04:16:53;;;;;;;4.93;4.40;;;;;;;22.58;40.50;100234.94;10361507;28;20065;-62
2023/07/08 04:21:54;;;;;;;5.20;4.28;;;;;;;22.53;40.56;100232.00;10360846;28;20057;-62
2023/07/08 04:26:56;;;;;;;4.85;4.35;;;;;;;22.48;40.63;100223.63;10361413;28;20064;-63
2023/07/08 04:31:57;;;;;;;7.78;3.92;;;;;;;22.50;40.54;100235.09;10362038;28;20456;-61
2023/07/08 04:36:59;;;;;;;5.47;3.50;;;;;;;22.55;40.71;100251.63;10359046;28;20073;-62
2023/07/08 04:42:00;;;;;;;6.85;4.47;;;;;;;22.62;41.11;100256.22;10363640;28;20050;-63
2023/07/08 04:47:01;;;;;;;5.65;3.95;;;;;;;22.66;40.42;100252.91;10359760;28;20057;-61
2023/07/08 04:52:03;;;;;;;5.53;4.43;;;;;;;22.67;40.80;100249.16;10361087;28;20045;-63
2023/07/08 04:57:05;;;;;;;6.63;3.83;;;;;;;22.73;40.51;100255.66;10359950;28;20046;-61
2023/07/08 05:02:06;;;;;;;4.25;3.53;;;;;;;22.66;40.97;100249.38;10359659;28;20046;-63
2023/07/08 05:07:08;;;;;;;6.10;4.53;;;;;;;22.74;41.01;100252.75;10357044;28;20137;-61
2023/07/08 05:12:09;;;;;;;5.38;3.95;;;;;;;22.76;40.53;100257.97;10361073;28;20524;-65
2023/07/08 05:17:11;;;;;;;5.63;3.90;;;;;;;22.80;40.43;100258.38;10360537;28;20990;-61
2023/07/08 05:22:13;;;;;;;4.90;3.70;;;;;;;22.81;40.50;100260.06;10363368;28;20161;-62
2023/07/08 05:27:15;;;;;;;6.70;4.35;;;;;;;22.79;40.59;100254.84;10360361;28;20657;-62
2023/07/08 05:32:17;;;;;;;4.82;3.78;;;;;;;22.89;40.70;100274.25;10365599;28;20115;-64
2023/07/08 05:37:23;;;;;;;5.37;3.70;;;;;;;22.90;40.63;100270.50;10355455;28;20049;-62
2023/07/08 05:42:25;;;;;;;5.10;4.60;;;;;;;22.91;40.80;100258.63;10363637;28;20052;-61
2023/07/08 05:47:26;;;;;;;6.43;4.50;;;;;;;22.96;40.72;100268.88;10356691;28;20080;-62
2023/07/08 05:52:28;;;;;;;5.10;4.60;;;;;;;23.01;40.57;100266.38;10353944;28;20061;-65
2023/07/08 05:57:30;;;;;;;7.38;4.15;;;;;;;23.03;40.33;100258.00;10357068;28;20128;-63
2023/07/08 06:02:31;;;;;;;4.50;3.53;;;;;;;23.20;39.97;100263.94;10356012;28;20049;-63
2023/07/08 06:07:33;;;;;;;4.15;3.20;;;;;;;23.27;39.74;100273.78;10345147;28;20061;-65
2023/07/08 06:12:34;;;;;;;5.40;3.83;;;;;;;23.10;40.03;100251.63;10359189;28;20436;-63
2023/07/08 06:17:36;;;;;;;4.32;3.80;;;;;;;23.18;39.45;100266.88;10352957;28;20069;-63
2023/07/08 06:22:37;;;;;;;6.22;3.88;;;;;;;23.10;39.89;100276.03;10374021;28;20041;-65
2023/07/08 06:27:48;;;;;;;6.20;3.30;;;;;;;23.24;40.59;100279.63;10419638;28;20041;-67
2023/07/08 06:32:49;;;;;;;4.50;3.70;;;;;;;23.30;39.92;100276.06;10400129;28;20277;-66
2023/07/08 06:37:51;;;;;;;5.25;3.33;;;;;;;23.41;39.90;100279.22;10369867;28;20054;-67
2023/07/08 06:42:52;;;;;;;4.60;3.47;;;;;;;23.42;39.12;100292.59;10361247;28;20135;-67
2023/07/08 06:47:54;;;;;;;4.43;3.65;;;;;;;23.50;39.04;100291.56;10363693;28;20118;-66
2023/07/08 06:52:55;;;;;;;3.90;3.30;;;;;;;23.62;39.49;100308.91;10361270;28;20056;-66
2023/07/08 06:57:57;;;;;;;4.95;3.97;;;;;;;23.72;39.76;100300.34;10365715;28;21115;-65
2023/07/08 07:02:58;;;;;;;5.82;3.83;;;;;;;23.84;39.28;100297.84;10371008;28;20053;-65
2023/07/08 07:08:00;;;;;;;4.30;3.42;;;;;;;23.94;39.37;100281.13;10362673;28;20111;-62
2023/07/08 07:13:01;;;;;;;5.88;3.83;;;;;;;24.18;39.93;100299.50;10370060;28;20828;-63
2023/07/08 07:18:03;;;;;;;5.15;4.35;;;;;;;24.18;40.98;100317.69;10371404;28;20336;-63
2023/07/08 07:23:07;;;;;;;7.50;4.87;;;;;;;24.08;41.22;100322.72;10360849;28;20246;-63
2023/07/08 07:28:09;;;;;;;6.82;3.97;;;;;;;24.01;40.98;100309.13;10355053;28;20170;-65
2023/07/08 07:33:10;;;;;;;7.85;3.67;;;;;;;24.13;41.42;100336.53;10360900;28;20060;-66
2023/07/08 07:38:14;;;;;;;7.72;4.43;;;;;;;24.25;41.11;100348.44;10366305;28;20700;-65
2023/07/08 07:43:15;;;;;;;5.00;4.00;;;;;;;24.20;41.16;100334.66;10368444;28;20141;-64
2023/07/08 07:48:17;;;;;;;4.75;4.10;;;;;;;24.49;41.06;100340.66;10371758;28;20133;-63
2023/07/08 07:53:18;;;;;;;5.57;4.18;;;;;;;24.64;40.79;100341.25;10372083;28;20077;-65
2023/07/08 07:58:20;;;;;;;6.47;3.90;;;;;;;24.67;40.56;100329.94;10363521;28;20627;-63
2023/07/08 08:03:22;;;;;;;4.22;3.63;;;;;;;24.75;40.45;100319.88;10366663;28;20679;-62
2023/07/08 08:08:23;;;;;;;5.40;3.50;;;;;;;24.81;39.83;100319.00;10364059;28;20068;-63
2023/07/08 08:13:25;;;;;;;3.83;3.30;;;;;;;24.86;39.64;100309.16;10372380;28;20304;-63
2023/07/08 08:18:26;;;;;;;4.57;3.70;;;;;;;24.79;39.19;100304.78;10364917;28;20064;-63
2023/07/08 08:23:28;;;;;;;5.35;3.45;;;;;;;24.85;39.35;100317.53;10364214;28;20053;-65
2023/07/08 08:28:29;;;;;;;6.45;3.72;;;;;;;24.88;39.16;100322.53;10367148;28;20054;-63
2023/07/08 08:33:31;;;;;;;4.95;3.80;;;;;;;24.88;39.54;100327.97;10361739;28;20089;-64
2023/07/08 08:38:32;;;;;;;7.32;4.65;;;;;;;25.15;38.75;100322.41;10366925;28;20053;-63
2023/07/08 08:43:39;;;;;;;4.70;4.28;;;;;;;25.43;37.84;100316.59;10365512;28;20080;-63
2023/07/08 08:48:51;;;;;;;6.68;4.95;;;;;;;25.68;37.54;100324.78;10362030;28;21620;-63
2023/07/08 08:53:56;;;;;;;6.93;4.55;;;;;;;25.89;37.13;100303.66;10362010;28;20046;-63
2023/07/08 08:59:20;;;;;;;7.00;4.50;;;;;;;26.19;36.81;100313.91;10363114;28;20053;-63
2023/07/08 09:04:28;;;;;;;5.43;4.53;;;;;;;26.39;36.32;100314.53;10362970;28;20136;-63
2023/07/08 09:09:38;;;;;;;4.95;4.18;;;;;;;26.41;35.87;100306.94;10362316;28;20083;-62
2023/07/08 09:14:40;;;;;;;4.63;4.10;;;;;;;26.60;36.50;100301.47;10379377;28;20373;-62
2023/07/08 09:19:47;;;;;;;5.57;4.95;;;;;;;26.78;35.71;100311.56;10387876;28;20049;-66
2023/07/08 09:24:59;;;;;;;5.32;4.47;;;;;;;27.08;36.03;100306.16;10357626;28;20056;-63
2023/07/08 09:30:01;;;;;;;7.80;5.82;;;;;;;27.49;35.27;100300.97;10361808;28;21057;-62
2023/07/08 09:35:06;;;;;;;5.93;4.65;;;;;;;28.07;34.44;100295.81;10361889;28;20057;-67
2023/07/08 09:40:21;;;;;;;5.32;4.68;;;;;;;28.27;33.22;100306.38;10359748;28;20125;-63
2023/07/08 09:45:24;;;;;;;5.57;4.82;;;;;;;28.37;33.71;100301.13;10359187;28;20615;-64
2023/07/08 09:50:29;;;;;;;5.65;5.13;;;;;;;28.37;32.44;100317.53;10364009;28;20056;-64
2023/07/08 09:55:30;;;;;;;6.68;4.75;;;;;;;28.29;31.69;100313.28;10355187;28;20155;-63
2023/07/08 10:00:37;;;;;;;7.50;4.50;;;;;;;28.48;30.71;100302.16;10355188;28;20060;-64
2023/07/08 10:05:42;;;;;;;5.07;4.57;;;;;;;28.60;30.27;100293.97;10354681;28;20092;-63
2023/07/08 10:10:46;;;;;;;7.22;5.13;;;;;;;28.64;29.40;100300.63;10354446;28;20134;-63
2023/07/08 10:16:30;;;;;;;5.47;4.85;;;;;;;28.72;29.30;100286.56;10346452;28;20058;-63
2023/07/08 10:21:38;;;;;;;6.13;5.22;;;;;;;29.02;29.59;100290.94;10236762;28;20116;-64
2023/07/08 10:26:39;;;;;;;9.20;5.20;;;;;;;29.11;29.11;100289.50;10330404;28;20136;-63
2023/07/08 10:31:56;;;;;;;5.20;4.70;;;;;;;29.24;29.99;100271.94;10358429;28;20132;-63
2023/07/08 10:37:26;;;;;;;6.00;4.32;;;;;;;29.62;29.41;100282.19;10346500;28;20053;-65
2023/07/08 10:42:49;;;;;;;5.78;5.03;;;;;;;29.86;28.48;100283.94;10356617;28;20134;-63
2023/07/08 10:48:32;;;;;;;6.78;4.82;;;;;;;30.14;28.33;100281.06;10348632;28;20060;-63
2023/07/08 10:53:53;;;;;;;5.07;4.30;;;;;;;30.20;28.63;100283.91;10321405;28;20091;-64
2023/07/08 10:59:34;;;;;;;5.60;4.80;;;;;;;30.37;29.00;100278.34;10346333;28;20056;-63
2023/07/08 11:04:39;;;;;;;5.15;4.25;;;;;;;30.50;28.85;100267.84;10348030;28;20376;-63
2023/07/08 11:09:48;;;;;;;4.72;4.07;;;;;;;30.57;27.53;100272.34;10360214;28;20833;-63
2023/07/08 11:14:59;;;;;;;7.70;5.25;;;;;;;30.63;27.44;100266.63;10354345;28;20056;-62
2023/07/08 11:20:19;;;;;;;6.57;4.60;;;;;;;30.75;27.12;100250.00;10353805;28;20053;-63
2023/07/08 11:25:24;;;;;;;5.65;4.75;;;;;;;30.84;25.95;100255.88;10351064;28;20125;-63
2023/07/08 11:30:29;;;;;;;7.40;4.72;;;;;;;30.99;27.78;100250.56;10348525;28;20054;-63
2023/07/08 11:35:35;;;;;;;5.15;4.65;;;;;;;31.28;25.63;100250.28;10349183;28;20060;-63
2023/07/08 11:40:56;;;;;;;5.28;4.47;;;;;;;31.40;25.97;100250.09;10349086;28;20053;-63
2023/07/08 11:46:06;;;;;;;5.97;4.60;;;;;;;31.58;26.23;100251.66;10349078;28;20060;-63
2023/07/08 11:51:08;;;;;;;4.97;4.30;;;;;;;31.67;24.98;100232.75;10349042;28;20510;-62
2023/07/08 11:56:16;;;;;;;6.05;4.93;;;;;;;31.84;24.68;100240.81;10354689;28;20053;-62
2023/07/08 12:01:17;;;;;;;6.35;4.82;;;;;;;31.91;25.07;100246.94;10390584;28;20042;-62
2023/07/08 12:06:28;;;;;;;6.35;4.80;;;;;;;32.01;25.56;100235.16;10379868;28;20083;-63
2023/07/08 12:11:35;;;;;;;6.90;4.50;;;;;;;32.19;24.63;100237.47;10354493;28;20053;-64
2023/07/08 12:16:36;;;;;;;5.43;4.88;;;;;;;32.05;25.26;100222.50;10353376;28;20092;-64
2023/07/08 12:21:38;;;;;;;5.22;4.72;;;;;;;32.20;25.04;100224.53;10351140;28;20061;-63
2023/07/08 12:26:40;;;;;;;6.45;4.82;;;;;;;32.18;24.98;100212.97;10349605;28;20154;-63
2023/07/08 12:31:42;;;;;;;5.93;4.78;;;;;;;32.27;24.13;100222.38;10352741;28;20189;-62
2023/07/08 12:36:46;;;;;;;7.72;5.10;;;;;;;32.22;24.94;100208.59;10351137;28;20139;-63
2023/07/08 12:41:48;;;;;;;6.78;5.05;;;;;;;32.32;25.13;100214.09;10349083;28;20594;-63
2023/07/08 12:46:52;;;;;;;5.57;4.97;;;;;;;32.36;24.87;100206.97;10351993;28;20793;-63
2023/07/08 12:51:54;;;;;;;6.05;4.50;;;;;;;32.37;25.19;100213.31;10348995;28;20672;-64
2023/07/08 12:56:56;;;;;;;5.60;4.03;;;;;;;32.34;25.50;100209.19;10352786;28;20516;-63
2023/07/08 13:01:58;;;;;;;5.22;4.72;;;;;;;32.40;24.53;100202.59;10351453;28;20061;-64
2023/07/08 13:07:00;;;;;;;9.13;4.10;;;;;;;32.39;24.55;100208.38;10350714;28;20053;-63
2023/07/08 13:12:12;;;;;;;5.32;4.05;;;;;;;32.41;24.36;100195.16;10350011;28;20195;-64
2023/07/08 13:17:16;;;;;;;4.18;3.78;;;;;;;32.47;24.27;100210.59;10349678;28;20085;-62
2023/07/08 13:22:22;;;;;;;6.95;4.18;;;;;;;32.47;25.06;100207.81;10350610;28;20053;-64
2023/07/08 13:27:25;;;;;;;5.15;3.80;;;;;;;32.41;25.72;100209.75;10345844;28;20054;-62
2023/07/08 13:32:31;;;;;;;5.00;3.95;;;;;;;32.39;25.63;100203.69;10348436;28;20277;-62
2023/07/08 13:37:33;;;;;;;6.03;3.95;;;;;;;32.41;25.56;100201.50;10371112;28;20068;-62
2023/07/08 13:42:34;;;;;;;4.28;3.55;;;;;;;32.41;26.14;100198.75;10354436;28;20072;-62
2023/07/08 13:47:36;;;;;;;5.65;3.80;;;;;;;32.37;26.28;100197.63;10351172;28;20092;-66
2023/07/08 13:52:37;;;;;;;5.30;3.15;;;;;;;32.35;26.53;100190.72;10348896;28;20049;-62
2023/07/08 13:57:39;;;;;;;4.15;3.22;;;;;;;32.31;26.75;100184.94;10349842;28;20091;-61
2023/07/08 14:02:44;;;;;;;5.75;3.38;;;;;;;32.34;26.20;100192.66;10347615;28;20053;-63
2023/07/08 14:07:46;;;;;;;4.93;3.78;;;;;;;32.46;26.07;100186.91;10345758;28;20053;-62
2023/07/08 14:12:47;;;;;;;;;;;;;;;32.57;25.89;100183.06;10347091;28;20053;-63
2023/07/08 14:17:51;;;;;;;5.13;3.33;;;;;;;32.58;26.38;100172.91;10347083;28;19925;-63
2023/07/08 14:22:53;;;;;;;4.50;3.58;;;;;;;32.49;26.52;100169.00;10346892;28;20442;-62
2023/07/08 14:27:55;;;;;;;6.53;3.85;;;;;;;32.40;26.67;100177.81;10339603;28;20188;-63
2023/07/08 14:32:57;;;;;;;4.50;3.53;;;;;;;32.24;27.07;100167.84;10343169;28;20068;-63
2023/07/08 14:37:59;;;;;;;5.15;3.72;;;;;;;32.19;27.12;100167.81;10349296;28;20080;-63
2023/07/08 14:43:04;;;;;;;6.25;3.70;;;;;;;32.19;27.03;100159.56;10349051;28;20134;-62
2023/07/08 14:48:10;;;;;;;6.00;4.18;;;;;;;32.08;27.35;100156.75;10398915;28;20183;-61
2023/07/08 14:53:16;;;;;;;4.25;3.80;;;;;;;32.05;27.46;100160.03;10353703;28;20053;-63
2023/07/08 14:58:27;;;;;;;7.53;3.70;;;;;;;32.03;27.60;100153.13;10346684;28;20077;-64
2023/07/08 15:03:28;;;;;;;4.45;3.53;;;;;;;32.03;28.01;100153.13;10346059;28;20081;-65
2023/07/08 15:08:31;;;;;;;;;;;;;;;32.06;27.87;100150.66;10350117;28;20898;-65
2023/07/08 15:13:33;;;;;;;7.07;3.90;;;;;;;32.10;27.89;100156.47;10346684;28;19937;-64
2023/07/08 15:18:35;;;;;;;6.60;3.72;;;;;;;32.18;27.61;100144.13;10344645;28;20439;-66
2023/07/08 15:23:37;;;;;;;7.32;3.65;;;;;;;32.12;27.68;100150.72;10349410;28;20054;-65
2023/07/08 15:28:50;;;;;;;7.03;3.70;;;;;;;32.07;27.95;100124.81;10348223;28;20053;-64
2023/07/08 15:33:52;;;;;;;6.22;3.92;;;;;;;31.99;27.86;100121.72;10349282;28;20061;-64
2023/07/08 15:38:53;;;;;;;;;;;;;;;32.08;28.02;100142.97;10350482;28;20416;-65
2023/07/08 15:43:56;;;;;;;5.07;3.70;;;;;;;32.09;28.19;100130.03;10350205;28;19929;-65
2023/07/08 15:48:58;;;;;;;4.80;3.42;;;;;;;32.00;28.70;100124.22;10347448;28;20038;-64
2023/07/08 15:53:59;;;;;;;5.55;3.45;;;;;;;32.16;28.42;100121.53;10352793;28;20060;-66
2023/07/08 15:59:01;;;;;;;6.82;3.80;;;;;;;32.22;27.98;100128.75;10351675;28;20732;-65
2023/07/08 16:04:02;;;;;;;5.78;4.13;;;;;;;32.12;28.34;100120.44;10354132;28;20049;-64
2023/07/08 16:09:04;;;;;;;7.10;4.43;;;;;;;32.10;28.30;100117.09;10355466;28;20551;-64
2023/07/08 16:14:06;;;;;;;6.53;3.97;;;;;;;32.04;28.56;100122.59;10355927;28;20136;-64
2023/07/08 16:19:11;;;;;;;5.50;3.13;;;;;;;32.08;28.78;100115.44;10355063;28;21286;-65
2023/07/08 16:24:12;;;;;;;5.10;3.42;;;;;;;32.02;28.67;100119.28;10352682;28;20061;-63
2023/07/08 16:29:16;;;;;;;5.57;4.22;;;;;;;31.99;28.29;100116.22;10348741;28;20133;-63
2023/07/08 16:34:17;;;;;;;6.63;3.88;;;;;;;31.93;28.44;100118.13;10348392;28;20088;-66
2023/07/08 16:39:19;;;;;;;4.88;3.80;;;;;;;31.85;28.61;100127.72;10353002;28;20127;-63
2023/07/08 16:44:20;;;;;;;3.67;3.33;;;;;;;31.78;28.90;100127.13;10347869;28;20851;-64
2023/07/08 16:49:21;;;;;;;3.97;3.05;;;;;;;31.56;28.50;100108.06;10353908;28;20057;-65
2023/07/08 16:54:24;;;;;;;5.20;3.58;;;;;;;31.67;28.61;100115.25;10353252;28;20619;-62
2023/07/08 16:59:25;;;;;;;4.68;3.58;;;;;;;31.64;28.80;100110.28;10353175;28;20054;-63
2023/07/08 17:04:26;;;;;;;3.60;2.75;;;;;;;31.59;28.46;100102.03;10351222;28;20143;-62
2023/07/08 17:09:28;;;;;;;6.13;3.63;;;;;;;31.66;28.75;100118.28;10346455;28;20104;-63
2023/07/08 17:14:29;;;;;;;5.07;3.70;;;;;;;31.66;28.99;100113.63;10359397;28;20045;-62
2023/07/08 17:19:31;;;;;;;4.90;3.55;;;;;;;31.68;29.04;100133.44;10353145;28;20061;-62
2023/07/08 17:24:32;;;;;;;6.63;4.63;;;;;;;31.46;29.20;100103.28;10354116;28;20045;-64
2023/07/08 17:29:34;;;;;;;5.55;3.95;;;;;;;31.61;28.95;100127.34;10362767;28;20042;-61
2023/07/08 17:34:35;;;;;;;4.32;3.25;;;;;;;31.59;29.11;100124.03;10390991;28;20164;-62
2023/07/08 17:39:37;;;;;;;;;;;;;;;31.50;29.62;100131.94;10350605;28;20187;-63
2023/07/08 17:44:40;;;;;;;9.60;5.80;;;;;;;31.45;29.67;100144.81;10364057;28;19929;-63
2023/07/08 17:49:41;;;;;;;7.93;4.22;;;;;;;31.40;29.55;100148.34;10348196;28;20433;-62
2023/07/08 17:54:43;;;;;;;4.35;3.40;;;;;;;31.31;29.33;100142.53;10348255;28;20160;-63
2023/07/08 17:59:46;;;;;;;5.80;3.72;;;;;;;31.31;29.80;100150.78;10346115;28;20183;-63
2023/07/08 18:04:47;;;;;;;5.55;4.57;;;;;;;31.21;30.17;100134.19;10350408;28;20128;-63
2023/07/08 18:09:48;;;;;;;6.72;4.22;;;;;;;31.18;30.50;100148.47;10349234;28;20062;-65
2023/07/08 18:14:50;;;;;;;7.07;4.20;;;;;;;31.19;30.74;100155.63;10347955;28;21391;-64
2023/07/08 18:19:51;;;;;;;4.73;4.30;;;;;;;31.06;30.66;100153.31;10348798;28;22352;-63
2023/07/08 18:24:53;;;;;;;7.03;4.00;;;;;;;30.95;31.14;100174.38;10348520;28;20293;-64
2023/07/08 18:29:54;;;;;;;6.85;4.00;;;;;;;30.69;31.90;100174.13;10338335;28;20100;-63
2023/07/08 18:34:55;;;;;;;3.90;2.53;;;;;;;30.53;31.82;100205.28;10346113;28;20139;-63
2023/07/08 18:39:57;;;;;;;4.77;2.90;;;;;;;30.35;31.86;100206.41;10344094;28;20053;-63
2023/07/08 18:44:59;;;;;;;3.80;2.87;;;;;;;30.04;31.47;100201.38;10346762;28;20140;-64
2023/07/08 18:50:01;;;;;;;3.95;2.20;;;;;;;29.97;31.32;100209.75;10346382;28;20140;-64
2023/07/08 18:55:03;;;;;;;6.03;1.90;;;;;;;29.85;31.63;100211.78;10345973;28;20289;-63
2023/07/08 19:00:08;;;;;;;;;;;;;;;29.79;31.81;100229.25;10348896;28;20137;-63
2023/07/08 19:05:11;;;;;;;4.55;2.28;;;;;;;29.73;31.38;100230.25;10348111;28;19940;-64
2023/07/08 19:10:15;;;;;;;3.78;1.60;;;;;;;29.66;31.38;100232.31;10344598;28;20053;-63
2023/07/08 19:15:24;;;;;;;3.70;2.25;;;;;;;29.59;31.47;100230.59;10349824;28;20551;-63
2023/07/08 19:20:33;;;;;;;5.68;2.25;;;;;;;29.48;31.21;100233.41;10349956;28;20236;-66
2023/07/08 19:25:34;;;;;;;3.60;1.67;;;;;;;29.45;31.12;100237.47;10345834;28;20112;-64
2023/07/08 19:30:39;;;;;;;5.53;2.53;;;;;;;29.36;31.40;100252.69;10343551;28;20060;-64
2023/07/08 19:35:43;;;;;;;2.20;1.67;;;;;;;29.25;31.56;100241.53;10344280;28;20085;-64
2023/07/08 19:40:52;;;;;;;3.60;2.00;;;;;;;29.20;31.44;100243.31;10350397;28;20541;-60
2023/07/08 19:45:54;;;;;;;5.07;2.28;;;;;;;29.12;31.68;100247.31;10355823;28;20104;-63
2023/07/08 19:50:55;;;;;;;5.70;1.80;;;;;;;29.04;31.66;100250.47;10352765;28;20466;-62
2023/07/08 19:55:57;;;;;;;2.72;1.90;;;;;;;28.95;31.88;100268.38;10356167;28;20046;-62
2023/07/08 20:00:59;;;;;;;2.53;2.10;;;;;;;28.85;31.85;100285.44;10353943;28;20056;-64
2023/07/08 20:06:10;;;;;;;4.17;1.70;;;;;;;28.77;32.08;100294.88;10353762;28;20606;-63
2023/07/08 20:11:12;;;;;;;2.90;1.67;;;;;;;28.49;32.19;100285.50;10355402;28;20049;-63
2023/07/08 20:16:23;;;;;;;3.33;2.05;;;;;;;28.41;32.79;100283.16;10376939;28;20053;-63
2023/07/08 20:21:26;;;;;;;2.58;2.00;;;;;;;28.37;33.29;100298.38;10368757;28;20065;-62
2023/07/08 20:26:30;;;;;;;2.72;1.90;;;;;;;28.28;33.22;100286.97;10354075;28;20057;-65
2023/07/08 20:31:32;;;;;;;3.63;2.22;;;;;;;28.13;33.53;100284.72;10346435;28;20585;-62
2023/07/08 20:36:34;;;;;;;3.53;2.45;;;;;;;28.12;33.68;100296.75;10352865;28;20633;-62
2023/07/08 20:41:35;;;;;;;5.55;2.10;;;;;;;28.01;33.99;100297.59;10353651;28;21148;-62
2023/07/08 20:46:37;;;;;;;4.55;2.33;;;;;;;28.04;34.05;100314.38;10353639;28;20111;-63
2023/07/08 20:51:38;;;;;;;3.50;1.77;;;;;;;27.98;34.18;100300.78;10350151;28;20050;-63
2023/07/08 20:56:40;;;;;;;4.40;1.92;;;;;;;27.85;34.31;100279.97;10351571;28;20046;-62
2023/07/08 21:01:42;;;;;;;4.38;2.50;;;;;;;27.85;34.54;100301.84;10344883;28;20057;-63
2023/07/08 21:06:43;;;;;;;4.60;2.57;;;;;;;27.85;35.07;100297.19;10351407;28;20183;-63
2023/07/08 21:11:45;;;;;;;3.53;2.65;;;;;;;27.73;35.17;100296.38;10353273;28;20096;-62
2023/07/08 21:16:48;;;;;;;3.50;2.20;;;;;;;27.72;34.82;100283.75;10351524;28;20128;-61
2023/07/08 21:21:50;;;;;;;2.80;2.10;;;;;;;27.76;34.59;100301.34;10351411;28;20045;-62
2023/07/08 21:26:51;;;;;;;5.10;3.20;;;;;;;27.75;36.26;100291.47;10347764;28;20100;-61
2023/07/08 21:31:53;;;;;;;4.05;2.58;;;;;;;27.69;36.11;100278.75;10349548;28;20053;-62
2023/07/08 21:37:01;;;;;;;3.17;2.28;;;;;;;27.70;36.08;100291.38;10348493;28;20225;-64
2023/07/08 21:42:05;;;;;;;4.35;2.70;;;;;;;27.64;36.70;100293.13;10345968;28;20108;-63
2023/07/08 21:47:06;;;;;;;5.15;3.00;;;;;;;27.58;36.22;100290.50;10354505;28;20136;-63
2023/07/08 21:52:08;;;;;;;4.57;3.33;;;;;;;27.45;36.76;100286.91;10351716;28;20377;-63
2023/07/08 21:57:13;;;;;;;5.17;3.30;;;;;;;27.48;37.08;100293.81;10361019;28;20244;-64
2023/07/08 22:02:15;;;;;;;5.05;3.22;;;;;;;27.33;36.52;100318.84;10355988;28;20295;-63
2023/07/08 22:07:17;;;;;;;5.50;2.85;;;;;;;27.22;37.26;100295.88;10360692;28;21001;-65
2023/07/08 22:12:18;;;;;;;6.30;3.07;;;;;;;27.25;37.60;100319.13;10352103;28;20176;-63
2023/07/08 22:17:20;;;;;;;5.30;2.83;;;;;;;27.08;37.82;100311.63;10357086;28;20351;-63
2023/07/08 22:22:22;;;;;;;5.80;3.42;;;;;;;26.88;38.26;100297.41;10358853;28;21583;-64
2023/07/08 22:27:23;;;;;;;5.90;3.45;;;;;;;27.02;38.51;100323.44;10371386;28;20053;-65
2023/07/08 22:32:24;;;;;;;4.57;4.10;;;;;;;26.94;38.11;100315.59;10356151;28;20121;-64
2023/07/08 22:37:26;;;;;;;5.80;3.92;;;;;;;26.84;39.15;100321.56;10357035;28;20092;-65
2023/07/08 22:42:27;;;;;;;5.68;3.90;;;;;;;26.77;38.46;100329.03;10359115;28;20096;-64
2023/07/08 22:47:29;;;;;;;5.43;4.38;;;;;;;26.75;39.23;100336.59;10356064;28;20182;-65
2023/07/08 22:52:35;;;;;;;4.15;3.75;;;;;;;26.72;39.32;100346.13;10365508;28;20057;-62
2023/07/08 22:57:37;;;;;;;5.22;3.63;;;;;;;26.67;39.61;100343.22;10358611;28;20046;-62
2023/07/08 23:02:38;;;;;;;6.50;3.65;;;;;;;26.58;39.36;100339.09;10380410;28;20515;-63
2023/07/08 23:07:40;;;;;;;5.80;4.22;;;;;;;26.55;39.79;100350.47;10362267;28;20050;-62
2023/07/08 23:12:41;;;;;;;4.75;3.83;;;;;;;26.49;40.62;100351.38;10361369;28;20053;-62
2023/07/08 23:17:43;;;;;;;4.93;3.78;;;;;;;26.45;40.11;100340.91;10358652;28;20058;-62
2023/07/08 23:22:45;;;;;;;6.50;3.77;;;;;;;26.42;39.84;100354.16;10357643;28;20127;-63